Terminal Aerodrome Forecast
Issued by NWS Albany, NY

Home | Current Version | Previous Version | Text Only | Print | Product List | Glossary On
Versions: 1 2 3 4 5 6 7 8 9 10 11 12 13 14 15 16 17 18 19 20 21
000
FTUS41 KALY 021128
TAFALB
TAF
KALB 021128Z 0212/0312 19005KT P6SM SKC
     FM021400 21008KT P6SM FEW050
     FM021600 22010G20KT P6SM SCT060
     FM022300 19008KT P6SM FEW060
     FM030400 17007KT P6SM SCT250=

USA.gov is the U.S. government's official web portal to all federal, state and local government web resources and services.